Lambertville, New Jersey
Current Conditions -  °F | °C
As of 7:16 AM on Tuesday 27 Jan 2015 (Local Time) from KTTN Reporting Station
Light Snow Light Snow  
Wind Chill: 12°   Ceiling: 2100
Heat Index: 24°   Visibility: 1.7mi
Dew Point: 19°   Wind: 14mph
Humidity: 81%   Direction: 340°NNW
Pressure: 29.7"   Gusts: NA
Location:  40.37°N, 74.94°W
Report Text: KTTN 271216Z 34012KT 1 3/4SM -SN OVC021 M04/M07 A2970 RMK AO2 P0000 T10441072
Loading
Personal Weather Stations






























Interactive Weather Map New forecast layout! Learn more

10-Day Weather Forecast

Advertisements
Track Severe Weather on mobile